Time;durP1;ratioP1;P1;durP2;ratioP2;P2;SDS_P1;SDS_P2;PMS_P1;PMS_P2;Temp;Humidity;BMP_temperature;BMP_pressure;BME280_temperature;BME280_humidity;BME280_pressure;Samples;Min_cycle;Max_cycle;Signal;HPM_P1;HPM_P2
2021/03/25 00:01:33;;;;;;;10.02;5.20;;;;;;;1.06;76.41;99561.09;5087819;28;20056;-83
2021/03/25 00:03:59;;;;;;;10.20;5.35;;;;;;;1.05;76.92;99571.94;5088394;28;20055;-83
2021/03/25 00:06:27;;;;;;;10.63;5.22;;;;;;;1.04;76.32;99544.31;5089277;28;20047;-83
2021/03/25 00:08:53;;;;;;;10.70;6.03;;;;;;;0.95;76.36;99533.41;5089239;28;20044;-83
2021/03/25 00:11:20;;;;;;;9.88;4.72;;;;;;;1.05;76.35;99547.84;5089433;28;20046;-83
2021/03/25 00:13:47;;;;;;;11.85;5.60;;;;;;;1.02;75.94;99535.56;5087201;28;20055;-83
2021/03/25 00:16:15;;;;;;;11.55;4.93;;;;;;;0.99;77.51;99553.66;5088823;28;20048;-82
2021/03/25 00:18:42;;;;;;;19.02;5.30;;;;;;;1.12;76.40;99553.59;5088732;28;20044;-82
2021/03/25 00:21:10;;;;;;;10.93;5.47;;;;;;;0.94;77.17;99555.81;5089761;28;20125;-82
2021/03/25 00:23:38;;;;;;;9.90;5.23;;;;;;;0.74;77.81;99535.88;5089281;28;20063;-83
2021/03/25 00:26:06;;;;;;;12.38;5.38;;;;;;;0.97;76.67;99561.78;5089027;28;20112;-83
2021/03/25 00:28:32;;;;;;;13.70;5.33;;;;;;;0.91;76.77;99537.31;5089845;28;20044;-83
2021/03/25 00:31:00;;;;;;;11.18;5.30;;;;;;;0.98;76.40;99544.78;5087152;28;21488;-82
2021/03/25 00:33:27;;;;;;;7.87;4.80;;;;;;;0.81;76.64;99540.69;5087256;28;20060;-82
2021/03/25 00:35:53;;;;;;;11.53;4.63;;;;;;;0.77;77.00;99541.00;5088234;28;20056;-82
2021/03/25 00:38:20;;;;;;;12.53;5.33;;;;;;;0.71;76.66;99520.91;5089800;28;20059;-83
2021/03/25 00:40:51;;;;;;;12.07;5.83;;;;;;;0.79;76.17;99520.34;5089908;28;20472;-83
2021/03/25 00:43:20;;;;;;;8.95;4.75;;;;;;;0.71;76.36;99512.88;5089169;28;20106;-82
2021/03/25 00:45:48;;;;;;;11.30;4.93;;;;;;;0.49;77.29;99529.66;5090391;28;20044;-83
2021/03/25 00:48:18;;;;;;;10.27;4.93;;;;;;;0.56;76.75;99524.69;5082991;28;20834;-82
2021/03/25 00:50:49;;;;;;;13.13;5.30;;;;;;;0.67;76.09;99532.81;5084787;28;20058;-82
2021/03/25 00:53:18;;;;;;;12.43;5.20;;;;;;;0.61;77.19;99533.25;5084757;28;20504;-83
2021/03/25 00:55:45;;;;;;;9.47;4.93;;;;;;;0.51;77.06;99522.34;5086996;28;20162;-85
2021/03/25 00:58:12;;;;;;;11.53;4.90;;;;;;;0.42;77.37;99536.41;5092390;28;20044;-84
2021/03/25 01:00:40;;;;;;;8.30;5.07;;;;;;;0.30;77.97;99514.94;5093259;28;20063;-84
2021/03/25 01:03:07;;;;;;;13.63;5.73;;;;;;;0.36;78.01;99524.31;5088016;28;20495;-84
2021/03/25 01:05:36;;;;;;;10.35;5.60;;;;;;;0.46;78.83;99535.22;5090460;28;20132;-84
2021/03/25 01:08:04;;;;;;;10.97;5.20;;;;;;;0.55;78.06;99513.16;5091953;28;20090;-84
2021/03/25 01:10:33;;;;;;;9.70;5.10;;;;;;;0.53;76.96;99509.75;5091299;28;20143;-84
2021/03/25 01:13:01;;;;;;;12.75;5.03;;;;;;;0.59;76.80;99520.00;5092684;28;20082;-84
2021/03/25 01:15:28;;;;;;;9.93;5.70;;;;;;;0.35;77.26;99518.13;5089585;28;20044;-84
2021/03/25 01:17:57;;;;;;;11.33;5.70;;;;;;;0.27;77.89;99525.00;5092296;28;20463;-84
2021/03/25 01:20:26;;;;;;;13.87;5.50;;;;;;;0.09;78.84;99503.97;5090150;28;20483;-84
2021/03/25 01:22:53;;;;;;;12.60;6.28;;;;;;;0.18;78.89;99518.47;5092458;28;20054;-84
2021/03/25 01:25:22;;;;;;;11.30;6.20;;;;;;;0.11;78.34;99510.06;5090745;28;20056;-84
2021/03/25 01:27:49;;;;;;;8.60;4.87;;;;;;;0.03;78.55;99495.53;5092621;28;20517;-84
2021/03/25 01:30:18;;;;;;;8.73;4.90;;;;;;;-0.05;78.61;99504.94;5080398;28;20500;-84
2021/03/25 01:32:44;;;;;;;13.70;5.90;;;;;;;-0.11;78.71;99489.34;5089280;28;20047;-84
2021/03/25 01:35:13;;;;;;;11.73;6.00;;;;;;;-0.12;78.69;99487.66;5089722;28;20234;-84
2021/03/25 01:37:40;;;;;;;13.10;5.93;;;;;;;-0.10;78.49;99500.91;5091454;28;20393;-84
2021/03/25 01:40:12;;;;;;;9.93;5.40;;;;;;;-0.21;79.02;99485.59;5091935;28;20044;-83
2021/03/25 01:42:39;;;;;;;10.20;5.73;;;;;;;-0.08;78.95;99505.16;5090204;28;20060;-83
2021/03/25 01:45:37;;;;;;;11.07;5.47;;;;;;;-0.10;78.59;99496.41;5090822;28;20054;-83
2021/03/25 01:48:04;;;;;;;13.73;6.07;;;;;;;-0.08;78.38;99491.78;5091251;28;20040;-83
2021/03/25 01:50:31;;;;;;;10.33;5.80;;;;;;;-0.03;78.61;99497.69;5082604;28;20500;-83
2021/03/25 01:53:12;;;;;;;11.50;5.70;;;;;;;0.01;78.23;99495.63;5085202;28;20436;-83
2021/03/25 01:55:48;;;;;;;15.30;6.60;;;;;;;-0.10;78.29;99471.50;5089461;28;20047;-83
2021/03/25 01:58:51;;;;;;;11.67;5.77;;;;;;;-0.09;78.30;99486.56;5089123;28;20127;-83
2021/03/25 02:01:28;;;;;;;14.63;5.90;;;;;;;-0.12;78.51;99476.97;5090716;28;20063;-83
2021/03/25 02:04:22;;;;;;;15.20;5.97;;;;;;;-0.31;79.22;99471.22;5078979;28;20097;-83
2021/03/25 02:07:04;;;;;;;12.47;5.83;;;;;;;-0.38;79.51;99466.28;5081730;28;20052;-84
2021/03/25 02:09:48;;;;;;;12.23;4.97;;;;;;;-0.29;80.29;99474.63;5092066;28;20051;-84
2021/03/25 02:12:24;;;;;;;12.53;5.90;;;;;;;-0.28;80.28;99479.84;5090083;28;20052;-83
2021/03/25 02:15:02;;;;;;;11.60;5.40;;;;;;;-0.26;80.54;99480.59;5091091;28;20051;-84
2021/03/25 02:17:33;;;;;;;12.70;5.43;;;;;;;-0.31;80.16;99458.69;5092497;28;20048;-84
2021/03/25 02:20:32;;;;;;;10.30;5.37;;;;;;;-0.26;79.96;99445.00;5087029;28;20059;-84
2021/03/25 02:23:16;;;;;;;10.00;5.40;;;;;;;-0.16;79.30;99462.09;5011727;28;20087;-83
2021/03/25 02:25:49;;;;;;;12.53;6.00;;;;;;;-0.41;80.51;99454.94;5085542;28;20097;-84
2021/03/25 02:28:32;;;;;;;13.67;6.60;;;;;;;-0.27;79.15;99454.84;5090950;28;20058;-84
2021/03/25 02:31:10;;;;;;;13.57;6.57;;;;;;;-0.09;78.99;99471.38;5090469;28;20298;-84
2021/03/25 02:33:39;;;;;;;14.63;6.37;;;;;;;-0.26;79.30;99445.84;5090754;28;20081;-84
2021/03/25 02:36:10;;;;;;;16.70;6.90;;;;;;;-0.25;79.23;99452.91;5089568;28;20138;-84
2021/03/25 02:38:41;;;;;;;10.23;5.40;;;;;;;-0.43;79.71;99439.03;5090559;28;20085;-84
2021/03/25 02:41:16;;;;;;;12.53;6.90;;;;;;;-0.58;80.66;99450.81;5090498;28;20052;-85
2021/03/25 02:43:48;;;;;;;15.40;7.30;;;;;;;-0.43;80.64;99471.09;5088150;28;20063;-84
2021/03/25 02:46:21;;;;;;;12.40;6.90;;;;;;;-0.52;80.74;99442.34;5071970;28;20057;-83
2021/03/25 02:48:50;;;;;;;11.73;6.47;;;;;;;-0.41;79.68;99457.63;5089602;28;20430;-83
2021/03/25 02:51:22;;;;;;;12.90;6.50;;;;;;;-0.47;80.29;99474.94;5087042;28;20484;-84
2021/03/25 02:53:49;;;;;;;11.00;5.83;;;;;;;-0.77;80.25;99443.19;5086288;28;20044;-84
2021/03/25 02:56:21;;;;;;;11.93;6.27;;;;;;;-0.58;80.86;99473.00;5085195;28;20056;-84
2021/03/25 02:58:53;;;;;;;13.43;6.60;;;;;;;-0.68;80.59;99445.22;5088063;28;20044;-84
2021/03/25 03:01:21;;;;;;;9.27;5.87;;;;;;;-0.53;80.16;99470.03;5087365;28;20056;-84
2021/03/25 03:03:51;;;;;;;12.53;5.93;;;;;;;-0.70;80.45;99455.19;5089738;28;20480;-84
2021/03/25 03:06:30;;;;;;;13.37;6.90;;;;;;;-0.50;80.08;99466.28;5086240;28;20062;-84
2021/03/25 03:08:57;;;;;;;12.70;6.20;;;;;;;-0.62;79.77;99450.13;5090070;28;20075;-85
2021/03/25 03:11:28;;;;;;;11.10;5.80;;;;;;;-0.81;80.71;99447.03;5089760;28;20048;-84
2021/03/25 03:14:06;;;;;;;11.00;6.13;;;;;;;-0.50;79.73;99463.63;5088904;28;20055;-83
2021/03/25 03:16:41;;;;;;;10.50;5.43;;;;;;;-0.60;80.08;99466.09;5077173;28;20056;-83
2021/03/25 03:19:19;;;;;;;10.90;5.90;;;;;;;-0.74;81.00;99459.88;5085967;28;20048;-84
2021/03/25 03:21:48;;;;;;;12.13;6.20;;;;;;;-0.61;80.71;99467.88;5089457;28;20050;-83
2021/03/25 03:24:16;;;;;;;11.18;5.97;;;;;;;-0.61;80.10;99457.19;5077861;28;20060;-84
2021/03/25 03:26:49;;;;;;;11.77;5.90;;;;;;;-0.65;80.14;99458.38;5081750;28;20077;-83
2021/03/25 03:29:18;;;;;;;10.43;5.47;;;;;;;-0.66;79.77;99454.00;5089934;28;20154;-83
2021/03/25 03:31:50;;;;;;;10.90;5.97;;;;;;;-0.78;80.39;99462.88;5089858;28;20488;-83
2021/03/25 03:34:20;;;;;;;12.13;5.60;;;;;;;-0.72;79.67;99465.97;5087643;28;20051;-84
2021/03/25 03:36:49;;;;;;;12.70;5.65;;;;;;;-0.75;80.63;99463.50;5090273;28;20079;-83
2021/03/25 03:39:21;;;;;;;11.18;6.07;;;;;;;-0.86;80.12;99449.19;5088375;28;20090;-83
2021/03/25 03:41:52;;;;;;;9.10;5.60;;;;;;;-0.78;80.59;99466.38;5090664;28;20051;-83
2021/03/25 03:44:22;;;;;;;11.87;5.73;;;;;;;-0.93;80.42;99435.41;5087912;28;20054;-83
2021/03/25 03:46:51;;;;;;;10.57;5.83;;;;;;;-0.91;81.06;99452.16;5090308;28;20085;-84
2021/03/25 03:49:21;;;;;;;10.53;5.90;;;;;;;-0.83;80.33;99456.97;5089456;28;20400;-84
2021/03/25 03:51:51;;;;;;;;;;;;;;;-0.88;80.72;99462.63;5089829;28;20048;-84
2021/03/25 03:54:18;;;;;;;8.63;5.53;;;;;;;-0.90;80.74;99456.56;5086783;28;19934;-84
2021/03/25 03:56:58;;;;;;;9.30;5.90;;;;;;;-1.08;81.18;99446.16;5082622;28;20041;-84
2021/03/25 03:59:29;;;;;;;11.02;6.78;;;;;;;-0.93;81.50;99462.09;5073000;28;20040;-84
2021/03/25 04:02:04;;;;;;;11.93;5.70;;;;;;;-1.05;81.39;99449.56;5088030;28;20056;-84
2021/03/25 04:04:35;;;;;;;13.17;6.50;;;;;;;-0.90;80.74;99452.06;5089182;28;20131;-84
2021/03/25 04:07:06;;;;;;;11.73;6.33;;;;;;;-0.92;81.74;99466.47;5082625;28;20048;-84
2021/03/25 04:09:36;;;;;;;21.40;7.37;;;;;;;-1.01;81.43;99448.41;5088966;28;20133;-84
2021/03/25 04:12:09;;;;;;;14.17;6.43;;;;;;;-0.99;81.17;99449.19;5087709;28;20051;-83
2021/03/25 04:14:43;;;;;;;13.00;6.07;;;;;;;-0.99;81.48;99454.50;5089415;28;20060;-84
2021/03/25 04:17:14;;;;;;;11.53;6.60;;;;;;;-1.15;81.32;99452.84;5089174;28;20051;-83
2021/03/25 04:19:43;;;;;;;17.53;6.67;;;;;;;-1.11;81.95;99462.38;5088725;28;20052;-83
2021/03/25 04:22:14;;;;;;;11.95;5.78;;;;;;;-1.31;81.90;99452.19;5088593;28;20048;-83
2021/03/25 04:24:47;;;;;;;15.47;6.33;;;;;;;-1.28;81.84;99443.97;5089074;28;20048;-83
2021/03/25 04:27:18;;;;;;;13.80;6.13;;;;;;;-1.27;81.98;99448.34;5092914;28;20052;-83
2021/03/25 04:29:48;;;;;;;12.80;6.43;;;;;;;-1.18;81.37;99444.22;5092041;28;20055;-84
2021/03/25 04:32:19;;;;;;;11.97;6.10;;;;;;;-1.03;81.17;99456.53;5092279;28;20044;-84
2021/03/25 04:34:48;;;;;;;12.10;6.70;;;;;;;-1.14;80.28;99435.06;5091025;28;20484;-84
2021/03/25 04:37:15;;;;;;;9.80;6.55;;;;;;;-1.23;81.51;99443.66;5091645;28;20484;-83
2021/03/25 04:39:43;;;;;;;15.37;6.60;;;;;;;-1.19;81.83;99453.19;5093061;28;20052;-83
2021/03/25 04:42:11;;;;;;;10.60;6.47;;;;;;;-1.35;82.30;99451.53;5093927;28;20518;-82
2021/03/25 04:44:40;;;;;;;17.07;6.50;;;;;;;-1.54;81.93;99422.56;5092591;28;20060;-83
2021/03/25 04:47:19;;;;;;;18.27;6.55;;;;;;;-1.45;81.42;99440.59;5093002;28;20131;-83
2021/03/25 04:49:50;;;;;;;16.00;6.10;;;;;;;-1.28;81.81;99463.50;5092917;28;20105;-83
2021/03/25 04:52:19;;;;;;;10.03;6.10;;;;;;;-1.33;81.62;99451.44;5091940;28;20071;-83
2021/03/25 04:54:46;;;;;;;16.05;5.75;;;;;;;-1.21;81.52;99447.09;5091335;28;20059;-83
2021/03/25 04:57:28;;;;;;;12.13;5.93;;;;;;;-1.30;80.92;99440.56;5091819;28;20173;-83
2021/03/25 04:59:58;;;;;;;10.13;5.60;;;;;;;-1.37;80.67;99431.25;5091761;28;20048;-83
2021/03/25 05:02:31;;;;;;;12.10;6.00;;;;;;;-1.40;81.26;99452.78;5094075;28;20511;-83
2021/03/25 05:05:01;;;;;;;12.83;6.53;;;;;;;-1.49;81.91;99456.91;5089363;28;20044;-83
2021/03/25 05:07:39;;;;;;;12.88;6.47;;;;;;;-1.43;81.60;99454.72;5091059;28;20052;-84
2021/03/25 05:10:17;;;;;;;13.60;5.87;;;;;;;-1.57;81.17;99438.75;5091265;28;20051;-84
2021/03/25 05:13:04;;;;;;;14.70;5.73;;;;;;;-1.53;81.83;99450.09;5090637;28;20063;-83
2021/03/25 05:15:32;;;;;;;12.53;5.63;;;;;;;-1.55;81.49;99439.53;5085250;28;20055;-84
2021/03/25 05:18:24;;;;;;;12.70;5.97;;;;;;;-1.57;81.25;99436.09;5092151;28;20040;-84
2021/03/25 05:21:10;;;;;;;16.27;6.40;;;;;;;-1.43;81.71;99468.06;5091770;28;20052;-84
2021/03/25 05:23:46;;;;;;;9.77;6.10;;;;;;;-1.48;81.49;99442.63;5092534;28;20364;-85
2021/03/25 05:26:21;;;;;;;10.60;5.90;;;;;;;-1.35;81.63;99466.69;5086095;28;20098;-83
2021/03/25 05:28:51;;;;;;;11.90;6.50;;;;;;;-1.38;80.90;99445.56;5091782;28;20052;-84
2021/03/25 05:31:19;;;;;;;10.40;5.73;;;;;;;-1.38;81.39;99453.56;5091923;28;20131;-84
2021/03/25 05:33:50;;;;;;;14.37;6.73;;;;;;;-1.32;81.02;99454.00;5092471;28;20078;-84
2021/03/25 05:36:21;;;;;;;10.90;6.13;;;;;;;-1.26;80.72;99453.59;5090526;28;20052;-84
2021/03/25 05:38:51;;;;;;;13.27;6.40;;;;;;;-1.37;81.42;99456.13;5092221;28;20047;-84
2021/03/25 05:41:31;;;;;;;10.23;5.75;;;;;;;-1.36;81.17;99457.81;5092753;28;20068;-84
2021/03/25 05:44:40;;;;;;;12.73;6.53;;;;;;;-1.28;80.23;99452.84;5088508;28;20143;-84
2021/03/25 05:47:28;;;;;;;10.33;5.63;;;;;;;-1.26;81.49;99452.75;5092462;28;20058;-84
2021/03/25 05:50:10;;;;;;;12.20;6.40;;;;;;;-1.27;81.03;99451.88;5076768;28;20194;-84
2021/03/25 05:52:48;;;;;;;15.50;6.30;;;;;;;-1.06;80.78;99475.41;5090473;28;20082;-84
2021/03/25 05:55:37;;;;;;;12.90;5.90;;;;;;;-1.06;80.90;99472.75;5090731;28;20098;-83
2021/03/25 05:58:16;;;;;;;12.55;6.50;;;;;;;-1.06;81.57;99480.75;5076750;28;20126;-84
2021/03/25 06:00:55;;;;;;;20.33;10.40;;;;;;;-1.08;81.33;99466.66;5083485;28;20119;-85
2021/03/25 06:03:26;;;;;;;14.52;7.63;;;;;;;-1.02;81.27;99470.72;5082965;28;20040;-85
2021/03/25 06:05:56;;;;;;;14.47;7.83;;;;;;;-0.80;80.99;99478.13;5088493;28;20082;-84
2021/03/25 06:08:29;;;;;;;;;;;;;;;-0.54;80.14;99484.34;5090986;28;20048;-84
2021/03/25 06:11:06;;;;;;;14.97;7.00;;;;;;;-0.22;78.94;99465.22;5088182;28;19927;-85
2021/03/25 06:13:51;;;;;;;16.07;7.97;;;;;;;0.28;77.87;99466.03;5092448;28;20146;-83
2021/03/25 06:16:36;;;;;;;13.23;6.23;;;;;;;0.46;77.18;99468.34;5088354;28;20056;-82
2021/03/25 06:19:38;;;;;;;14.50;7.00;;;;;;;0.54;77.01;99471.28;5090363;28;20052;-83
2021/03/25 06:22:19;;;;;;;13.97;7.07;;;;;;;0.72;76.08;99474.44;5077594;28;20059;-83
2021/03/25 06:25:08;;;;;;;15.70;8.00;;;;;;;0.92;75.99;99474.75;5091193;28;20062;-83
2021/03/25 06:27:49;;;;;;;16.53;7.83;;;;;;;1.04;75.46;99465.81;5090826;28;20044;-83
2021/03/25 06:30:20;;;;;;;15.50;7.83;;;;;;;1.35;74.65;99464.28;5092022;28;20044;-83
2021/03/25 06:32:56;;;;;;;17.43;7.33;;;;;;;1.66;74.69;99485.19;5089830;28;20086;-83
2021/03/25 06:35:28;;;;;;;13.87;8.07;;;;;;;1.29;75.46;99459.41;5090485;28;20044;-83
2021/03/25 06:38:03;;;;;;;22.77;9.53;;;;;;;1.49;75.50;99478.44;5089549;28;20072;-83
2021/03/25 06:40:35;;;;;;;15.87;8.53;;;;;;;1.58;75.19;99483.97;5090142;28;20143;-81
2021/03/25 06:43:08;;;;;;;15.73;9.30;;;;;;;1.86;74.33;99502.38;5084011;28;20094;-81
2021/03/25 06:45:39;;;;;;;18.97;9.37;;;;;;;2.01;74.32;99498.47;5080831;28;20559;-80
2021/03/25 06:48:12;;;;;;;15.27;9.20;;;;;;;1.84;74.63;99458.75;5090207;28;20499;-81
2021/03/25 06:50:42;;;;;;;28.02;10.70;;;;;;;2.01;74.38;99474.34;5087296;28;20040;-80
2021/03/25 06:53:23;;;;;;;17.88;9.18;;;;;;;2.17;75.06;99473.97;5090854;28;20039;-83
2021/03/25 06:55:51;;;;;;;17.05;7.82;;;;;;;2.45;74.43;99490.50;5087162;28;20054;-82
2021/03/25 06:58:25;;;;;;;24.38;9.73;;;;;;;2.58;74.09;99485.00;5088179;28;20055;-83
2021/03/25 07:00:57;;;;;;;17.90;9.10;;;;;;;2.78;74.33;99484.19;5086964;28;20407;-83
2021/03/25 07:03:28;;;;;;;20.60;10.68;;;;;;;2.73;73.78;99466.78;5089769;28;20055;-83
2021/03/25 07:05:56;;;;;;;18.73;9.07;;;;;;;3.10;73.18;99491.41;5081396;28;20404;-78
2021/03/25 07:08:33;;;;;;;26.63;11.57;;;;;;;3.29;72.22;99490.69;5084981;28;20052;-83
2021/03/25 07:11:06;;;;;;;25.13;11.82;;;;;;;3.30;72.21;99476.28;5083775;28;20040;-83
2021/03/25 07:13:39;;;;;;;22.98;9.20;;;;;;;3.41;73.17;99479.88;5083877;28;20051;-83
2021/03/25 07:16:10;;;;;;;13.52;8.52;;;;;;;3.36;73.36;99469.53;5087790;28;20052;-83
2021/03/25 07:18:51;;;;;;;20.40;9.90;;;;;;;3.43;73.89;99476.06;5078642;28;20451;-83
2021/03/25 07:21:30;;;;;;;18.52;7.90;;;;;;;3.40;74.67;99494.31;5084937;28;20057;-83
2021/03/25 07:24:01;;;;;;;39.75;11.75;;;;;;;3.45;73.67;99494.78;5085468;28;20067;-83
2021/03/25 07:26:34;;;;;;;26.90;11.43;;;;;;;3.75;73.05;99467.06;5092173;28;20416;-85
2021/03/25 07:29:06;;;;;;;31.55;9.43;;;;;;;3.96;73.25;99464.34;5080120;28;20094;-84
2021/03/25 07:31:38;;;;;;;23.40;9.70;;;;;;;4.29;73.74;99483.00;5087595;28;20076;-83
2021/03/25 07:34:06;;;;;;;23.60;8.88;;;;;;;4.44;73.94;99473.53;5087270;28;20044;-82
2021/03/25 07:36:35;;;;;;;20.13;8.35;;;;;;;4.71;73.51;99463.97;5088234;28;20101;-83
2021/03/25 07:39:06;;;;;;;22.48;8.10;;;;;;;5.11;73.80;99484.56;5079157;28;20055;-83
2021/03/25 07:41:34;;;;;;;17.77;7.82;;;;;;;5.17;72.94;99486.69;5089798;28;20083;-81
2021/03/25 07:44:03;;;;;;;25.30;8.02;;;;;;;5.35;72.41;99489.50;5087405;28;20059;-81
2021/03/25 07:46:36;;;;;;;13.38;7.00;;;;;;;5.49;72.41;99490.91;5090409;28;20105;-85
2021/03/25 07:49:14;;;;;;;20.67;7.53;;;;;;;5.84;72.95;99484.00;5085715;28;20143;-84
2021/03/25 07:51:47;;;;;;;14.68;6.85;;;;;;;6.12;72.58;99487.63;5088256;28;20036;-84
2021/03/25 07:54:25;;;;;;;19.77;6.65;;;;;;;6.42;71.02;99496.44;5084906;28;20048;-83
2021/03/25 07:57:06;;;;;;;11.45;5.65;;;;;;;6.65;69.56;99482.53;5083025;28;20052;-84
2021/03/25 07:59:37;;;;;;;;;;;;;;;7.11;68.01;99482.50;5090060;28;20276;-83
2021/03/25 08:02:24;;;;;;;10.50;4.80;;;;;;;7.39;65.80;99492.22;5089829;28;19920;-83
2021/03/25 08:04:54;;;;;;;10.02;5.53;;;;;;;7.48;65.47;99479.59;5095790;28;20077;-82
2021/03/25 08:07:38;;;;;;;11.77;6.40;;;;;;;7.66;64.72;99476.00;5084199;28;20052;-83
2021/03/25 08:10:20;;;;;;;12.50;5.63;;;;;;;7.75;63.92;99483.16;5094421;28;20048;-83
2021/03/25 08:12:50;;;;;;;10.20;4.82;;;;;;;7.86;63.50;99479.34;5091866;28;20047;-82
2021/03/25 08:15:33;;;;;;;11.98;5.90;;;;;;;7.93;62.01;99491.22;5095669;28;20476;-82
2021/03/25 08:18:19;;;;;;;15.57;6.20;;;;;;;8.04;61.96;99492.81;5090985;28;20040;-82
2021/03/25 08:20:54;;;;;;;11.38;6.18;;;;;;;8.24;63.28;99498.84;5095168;28;20101;-82
2021/03/25 08:23:50;;;;;;;13.45;5.22;;;;;;;8.37;61.72;99492.97;5092003;28;20048;-82
2021/03/25 08:26:22;;;;;;;13.50;5.28;;;;;;;8.56;61.05;99497.34;5072943;28;20451;-82
2021/03/25 08:29:15;;;;;;;11.15;5.65;;;;;;;8.62;61.20;99486.66;5084550;28;20040;-82
2021/03/25 08:31:54;;;;;;;8.85;5.80;;;;;;;8.69;58.69;99473.31;5095475;28;20052;-82
2021/03/25 08:35:00;;;;;;;13.13;4.95;;;;;;;8.67;59.37;99478.91;5094986;28;20063;-82
2021/03/25 08:37:50;;;;;;;8.93;5.32;;;;;;;8.91;59.48;99487.25;5070689;28;20439;-82
2021/03/25 08:40:24;;;;;;;8.15;5.10;;;;;;;9.02;60.33;99486.97;5094567;28;20084;-81
2021/03/25 08:42:55;;;;;;;12.13;5.22;;;;;;;8.99;59.33;99466.44;5096083;28;20062;-83
2021/03/25 08:45:27;;;;;;;12.50;5.65;;;;;;;9.27;59.87;99492.41;5092192;28;20048;-81
2021/03/25 08:48:03;;;;;;;14.95;5.97;;;;;;;9.27;59.96;99489.69;5095505;28;20535;-82
2021/03/25 08:50:50;;;;;;;14.13;5.47;;;;;;;9.47;58.70;99488.34;5096297;28;20071;-82
2021/03/25 08:53:43;;;;;;;9.75;5.10;;;;;;;9.67;59.19;99488.00;5075787;28;20139;-82
2021/03/25 08:59:23;;;;;;;19.52;5.13;;;;;;;9.79;58.76;99488.50;5071759;28;20052;-82
2021/03/25 09:04:50;;;;;;;12.85;4.85;;;;;;;10.04;56.29;99484.72;5083752;28;20055;-81
2021/03/25 09:07:20;;;;;;;14.75;5.10;;;;;;;10.15;56.15;99486.19;5090194;28;20071;-84
2021/03/25 09:09:50;;;;;;;14.68;5.88;;;;;;;10.07;56.65;99475.34;5091179;28;20044;-84
2021/03/25 09:12:20;;;;;;;;;;;;;;;10.33;56.16;99496.88;5087474;28;20063;-84
2021/03/25 09:14:50;;;;;;;14.48;6.18;;;;;;;10.50;56.90;99494.09;5087065;28;19928;-84
2021/03/25 09:17:20;;;;;;;12.20;5.35;;;;;;;10.53;55.44;99483.72;5088104;28;20056;-86
2021/03/25 09:19:50;;;;;;;16.35;5.38;;;;;;;10.45;54.15;99473.72;5083148;28;20052;-86
2021/03/25 09:22:45;;;;;;;12.23;5.68;;;;;;;10.64;56.00;99482.47;5085668;28;20322;-85
2021/03/25 09:25:32;;;;;;;19.25;6.18;;;;;;;10.72;54.67;99473.41;5090922;28;20055;-83
2021/03/25 09:28:01;;;;;;;13.75;5.25;;;;;;;10.71;54.87;99466.28;5081057;28;20075;-84
2021/03/25 09:30:36;;;;;;;10.30;5.10;;;;;;;10.80;54.57;99476.09;5091949;28;20079;-84
2021/03/25 09:33:43;;;;;;;11.40;5.03;;;;;;;11.10;55.34;99487.13;5090974;28;20048;-83
2021/03/25 09:36:55;;;;;;;7.20;4.40;;;;;;;11.21;52.96;99492.16;5083153;28;20113;-84
2021/03/25 09:39:43;;;;;;;10.30;4.75;;;;;;;11.25;53.47;99468.16;5074337;28;20062;-84
2021/03/25 09:42:29;;;;;;;8.70;4.95;;;;;;;11.43;52.34;99487.75;5089532;28;20470;-85
2021/03/25 09:44:57;;;;;;;9.55;5.25;;;;;;;11.19;51.55;99477.06;5083047;28;20061;-85
2021/03/25 09:47:38;;;;;;;15.90;5.15;;;;;;;11.34;52.58;99469.78;5090682;28;20560;-84
2021/03/25 09:50:23;;;;;;;8.93;4.63;;;;;;;11.49;51.72;99488.88;5089773;28;20484;-85
2021/03/25 09:53:22;;;;;;;11.80;5.30;;;;;;;11.62;53.38;99472.78;5083236;28;20071;-84
2021/03/25 09:56:22;;;;;;;9.00;5.30;;;;;;;11.78;51.40;99482.66;5086321;28;20087;-84
2021/03/25 09:58:49;;;;;;;9.52;5.40;;;;;;;11.94;51.51;99476.25;5085945;28;20404;-84
2021/03/25 10:01:43;;;;;;;10.23;5.22;;;;;;;12.14;50.69;99484.72;5090794;28;20052;-85
2021/03/25 10:04:33;;;;;;;10.85;4.78;;;;;;;12.19;50.10;99482.28;5080460;28;20567;-84
2021/03/25 10:07:35;;;;;;;9.57;5.25;;;;;;;12.28;48.86;99477.56;5085872;28;20131;-85
2021/03/25 10:10:39;;;;;;;9.13;4.72;;;;;;;12.23;48.40;99457.38;5070580;28;20052;-84
2021/03/25 10:13:40;;;;;;;6.47;3.90;;;;;;;12.36;44.43;99471.16;5079816;28;20055;-84
2021/03/25 10:16:12;;;;;;;9.88;4.68;;;;;;;12.29;45.08;99468.34;5086118;28;20542;-84
2021/03/25 10:19:03;;;;;;;11.00;4.40;;;;;;;12.39;46.00;99460.75;5084655;28;20048;-84
2021/03/25 10:22:17;;;;;;;14.32;3.65;;;;;;;12.47;43.07;99464.41;5087956;28;20437;-84
2021/03/25 10:24:55;;;;;;;9.57;4.43;;;;;;;12.48;43.29;99463.34;5082201;28;20067;-84
2021/03/25 10:27:47;;;;;;;10.52;4.15;;;;;;;12.49;43.90;99446.78;5086976;28;20499;-83
2021/03/25 10:30:27;;;;;;;11.30;4.82;;;;;;;12.56;44.81;99427.81;5078346;28;20050;-82
2021/03/25 10:32:57;;;;;;;13.73;5.03;;;;;;;12.67;45.07;99442.81;5090453;28;20055;-84
2021/03/25 10:35:26;;;;;;;;;;;;;;;12.79;44.47;99454.09;5087163;28;20078;-84
2021/03/25 10:37:58;;;;;;;10.30;5.00;;;;;;;12.72;44.56;99445.81;5088746;28;20018;-83
2021/03/25 10:40:33;;;;;;;16.05;6.40;;;;;;;12.74;44.35;99447.31;5086498;28;20055;-84
2021/03/25 10:43:02;;;;;;;13.30;5.57;;;;;;;12.92;44.99;99446.06;5086169;28;20055;-85
2021/03/25 10:45:48;;;;;;;14.23;5.85;;;;;;;13.15;43.90;99447.75;5084489;28;20108;-84
2021/03/25 10:48:25;;;;;;;13.52;6.18;;;;;;;13.06;43.69;99434.22;5085280;28;20448;-84
2021/03/25 10:51:01;;;;;;;22.83;6.55;;;;;;;13.09;44.45;99428.38;5081688;28;20065;-84
2021/03/25 10:53:32;;;;;;;13.30;6.43;;;;;;;13.11;43.70;99436.38;5094460;28;20066;-87
2021/03/25 10:56:14;;;;;;;20.35;6.55;;;;;;;13.37;43.51;99443.16;5076295;28;20365;-84
2021/03/25 10:58:43;;;;;;;18.20;6.65;;;;;;;13.50;44.00;99434.22;5073740;28;20050;-85
2021/03/25 11:01:17;;;;;;;16.27;6.15;;;;;;;13.52;43.15;99427.53;5072925;28;20051;-86
2021/03/25 11:03:56;;;;;;;14.25;6.35;;;;;;;13.40;44.12;99407.28;5091332;28;20048;-86
2021/03/25 11:06:29;;;;;;;18.88;6.68;;;;;;;13.51;45.42;99416.81;5091880;28;20143;-85
2021/03/25 11:09:06;;;;;;;17.45;6.10;;;;;;;13.50;44.43;99402.28;5085220;28;20040;-86
2021/03/25 11:11:39;;;;;;;16.15;7.25;;;;;;;13.44;44.11;99401.22;5090522;28;20056;-86
2021/03/25 11:14:16;;;;;;;14.20;6.47;;;;;;;13.58;44.89;99406.78;5090565;28;20500;-86
2021/03/25 11:16:51;;;;;;;14.88;6.35;;;;;;;13.85;45.16;99415.16;5091641;28;20048;-85
2021/03/25 11:19:20;;;;;;;13.07;5.78;;;;;;;13.98;43.31;99420.72;5091042;28;20070;-86
2021/03/25 11:21:47;;;;;;;14.85;6.85;;;;;;;14.05;42.32;99415.28;5090527;28;20074;-85
2021/03/25 11:24:17;;;;;;;11.00;5.40;;;;;;;14.09;42.71;99411.09;5091166;28;20480;-86
2021/03/25 11:26:47;;;;;;;11.30;5.43;;;;;;;14.21;42.36;99400.44;5088392;28;20079;-86
2021/03/25 11:29:24;;;;;;;9.45;5.63;;;;;;;14.29;43.69;99406.59;5091481;28;20059;-86
2021/03/25 11:32:10;;;;;;;13.63;6.72;;;;;;;14.10;42.53;99399.94;5087202;28;20063;-86
2021/03/25 11:34:39;;;;;;;15.82;6.22;;;;;;;14.25;42.28;99401.72;5074671;28;20105;-87
2021/03/25 11:37:15;;;;;;;19.05;6.30;;;;;;;14.37;42.64;99394.63;5082405;28;20041;-86
2021/03/25 11:40:14;;;;;;;16.15;6.60;;;;;;;14.57;44.41;99405.63;5091601;28;20044;-86
2021/03/25 11:42:53;;;;;;;18.02;6.45;;;;;;;14.45;40.70;99396.31;5090685;28;20063;-86
2021/03/25 11:45:34;;;;;;;17.20;6.63;;;;;;;14.35;40.87;99396.72;5090883;28;20052;-86
2021/03/25 11:48:15;;;;;;;19.17;5.80;;;;;;;14.47;41.10;99395.09;5073285;28;20040;-87
2021/03/25 11:50:47;;;;;;;15.48;6.13;;;;;;;14.61;40.96;99384.22;5090464;28;20059;-87
2021/03/25 11:54:02;;;;;;;17.33;6.38;;;;;;;14.66;39.56;99374.34;5091603;28;20156;-86
2021/03/25 11:56:34;;;;;;;15.55;6.00;;;;;;;14.80;39.78;99377.97;5092383;28;20044;-86
2021/03/25 11:59:06;;;;;;;17.42;5.72;;;;;;;14.98;39.79;99374.63;5092181;28;20044;-86
2021/03/25 12:01:34;;;;;;;12.40;4.72;;;;;;;15.10;40.01;99371.25;5093231;28;20135;-87
2021/03/25 12:04:04;;;;;;;13.60;4.95;;;;;;;15.34;39.12;99375.25;5091574;28;20098;-88
2021/03/25 12:06:39;;;;;;;11.98;5.15;;;;;;;15.44;38.36;99372.94;5092907;28;20063;-84
2021/03/25 12:09:13;;;;;;;20.20;4.38;;;;;;;15.26;38.34;99367.25;5087736;28;20051;-84
2021/03/25 12:11:45;;;;;;;13.52;5.63;;;;;;;15.50;39.39;99360.31;5070796;28;20127;-85
2021/03/25 12:14:15;;;;;;;11.82;5.90;;;;;;;15.69;37.53;99358.59;5084115;28;20051;-84